sensor_id;sensor_type;location;lat;lon;timestamp;P1;durP1;ratioP1;P2;durP2;ratioP2
67571;SDS011;54397;47.506;19.158;2022-12-20T00:02:47;49.93;;;23.00;;
67571;SDS011;54397;47.506;19.158;2022-12-20T00:06:10;45.40;;;22.30;;
67571;SDS011;54397;47.506;19.158;2022-12-20T00:09:32;43.93;;;21.77;;
67571;SDS011;54397;47.506;19.158;2022-12-20T00:12:53;46.07;;;21.20;;
67571;SDS011;54397;47.506;19.158;2022-12-20T00:16:16;48.90;;;23.37;;
67571;SDS011;54397;47.506;19.158;2022-12-20T00:19:42;124.87;;;48.10;;
67571;SDS011;54397;47.506;19.158;2022-12-20T00:23:04;54.23;;;25.90;;
67571;SDS011;54397;47.506;19.158;2022-12-20T00:26:29;48.67;;;22.47;;
67571;SDS011;54397;47.506;19.158;2022-12-20T00:29:52;48.47;;;21.73;;
67571;SDS011;54397;47.506;19.158;2022-12-20T00:33:16;46.83;;;22.47;;
67571;SDS011;54397;47.506;19.158;2022-12-20T00:36:38;43.13;;;21.53;;
67571;SDS011;54397;47.506;19.158;2022-12-20T00:40:00;41.13;;;20.67;;
67571;SDS011;54397;47.506;19.158;2022-12-20T00:43:22;44.40;;;21.20;;
67571;SDS011;54397;47.506;19.158;2022-12-20T00:46:43;47.00;;;23.27;;
67571;SDS011;54397;47.506;19.158;2022-12-20T00:50:05;42.87;;;21.93;;
67571;SDS011;54397;47.506;19.158;2022-12-20T00:53:27;50.03;;;22.23;;
67571;SDS011;54397;47.506;19.158;2022-12-20T00:56:49;43.63;;;20.93;;
67571;SDS011;54397;47.506;19.158;2022-12-20T01:00:11;43.17;;;21.53;;
67571;SDS011;54397;47.506;19.158;2022-12-20T01:03:36;47.03;;;21.27;;
67571;SDS011;54397;47.506;19.158;2022-12-20T01:06:57;41.57;;;20.97;;
67571;SDS011;54397;47.506;19.158;2022-12-20T01:10:19;45.90;;;20.50;;
67571;SDS011;54397;47.506;19.158;2022-12-20T01:13:43;45.23;;;21.70;;
67571;SDS011;54397;47.506;19.158;2022-12-20T01:17:06;43.47;;;21.40;;
67571;SDS011;54397;47.506;19.158;2022-12-20T01:20:28;46.90;;;21.37;;
67571;SDS011;54397;47.506;19.158;2022-12-20T01:23:50;43.50;;;22.60;;
67571;SDS011;54397;47.506;19.158;2022-12-20T01:27:12;49.00;;;22.07;;
67571;SDS011;54397;47.506;19.158;2022-12-20T01:30:33;38.10;;;20.07;;
67571;SDS011;54397;47.506;19.158;2022-12-20T01:33:55;42.63;;;20.93;;
67571;SDS011;54397;47.506;19.158;2022-12-20T01:37:17;39.77;;;19.93;;
67571;SDS011;54397;47.506;19.158;2022-12-20T01:40:39;48.33;;;22.53;;
67571;SDS011;54397;47.506;19.158;2022-12-20T01:44:04;39.67;;;20.40;;
67571;SDS011;54397;47.506;19.158;2022-12-20T01:47:46;44.90;;;21.67;;
67571;SDS011;54397;47.506;19.158;2022-12-20T01:51:08;43.10;;;21.30;;
67571;SDS011;54397;47.506;19.158;2022-12-20T01:54:31;45.00;;;21.63;;
67571;SDS011;54397;47.506;19.158;2022-12-20T01:57:59;41.10;;;21.95;;
67571;SDS011;54397;47.506;19.158;2022-12-20T02:01:23;42.20;;;22.10;;
67571;SDS011;54397;47.506;19.158;2022-12-20T02:04:49;46.47;;;21.67;;
67571;SDS011;54397;47.506;19.158;2022-12-20T02:08:11;44.57;;;22.27;;
67571;SDS011;54397;47.506;19.158;2022-12-20T02:15:31;41.10;;;20.27;;
67571;SDS011;54397;47.506;19.158;2022-12-20T02:19:16;42.90;;;20.90;;
67571;SDS011;54397;47.506;19.158;2022-12-20T02:30:08;39.27;;;21.27;;
67571;SDS011;54397;47.506;19.158;2022-12-20T02:33:38;40.47;;;20.67;;
67571;SDS011;54397;47.506;19.158;2022-12-20T02:37:04;35.77;;;17.77;;
67571;SDS011;54397;47.506;19.158;2022-12-20T02:40:27;38.73;;;20.17;;
67571;SDS011;54397;47.506;19.158;2022-12-20T02:43:55;38.23;;;19.13;;
67571;SDS011;54397;47.506;19.158;2022-12-20T02:47:50;37.97;;;18.50;;
67571;SDS011;54397;47.506;19.158;2022-12-20T02:51:15;40.77;;;19.03;;
67571;SDS011;54397;47.506;19.158;2022-12-20T02:54:40;34.60;;;18.40;;
67571;SDS011;54397;47.506;19.158;2022-12-20T02:58:03;36.27;;;18.57;;
67571;SDS011;54397;47.506;19.158;2022-12-20T03:01:30;36.13;;;17.60;;
67571;SDS011;54397;47.506;19.158;2022-12-20T03:04:58;35.43;;;17.70;;
67571;SDS011;54397;47.506;19.158;2022-12-20T03:08:23;32.97;;;16.97;;
67571;SDS011;54397;47.506;19.158;2022-12-20T03:11:48;38.07;;;18.00;;
67571;SDS011;54397;47.506;19.158;2022-12-20T03:15:10;37.80;;;19.30;;
67571;SDS011;54397;47.506;19.158;2022-12-20T03:18:32;35.30;;;17.53;;
67571;SDS011;54397;47.506;19.158;2022-12-20T03:21:54;35.77;;;18.40;;
67571;SDS011;54397;47.506;19.158;2022-12-20T03:25:15;33.43;;;17.73;;
67571;SDS011;54397;47.506;19.158;2022-12-20T03:28:37;34.30;;;17.83;;
67571;SDS011;54397;47.506;19.158;2022-12-20T03:32:01;33.37;;;17.60;;
67571;SDS011;54397;47.506;19.158;2022-12-20T03:35:23;36.73;;;17.87;;
67571;SDS011;54397;47.506;19.158;2022-12-20T03:38:45;34.40;;;17.10;;
67571;SDS011;54397;47.506;19.158;2022-12-20T03:42:08;33.57;;;17.17;;
67571;SDS011;54397;47.506;19.158;2022-12-20T03:45:30;35.33;;;18.30;;
67571;SDS011;54397;47.506;19.158;2022-12-20T03:48:52;36.37;;;17.50;;
67571;SDS011;54397;47.506;19.158;2022-12-20T03:52:16;41.83;;;18.27;;
67571;SDS011;54397;47.506;19.158;2022-12-20T03:55:40;35.23;;;18.63;;
67571;SDS011;54397;47.506;19.158;2022-12-20T03:59:05;33.40;;;17.17;;
67571;SDS011;54397;47.506;19.158;2022-12-20T04:02:27;33.07;;;16.27;;
67571;SDS011;54397;47.506;19.158;2022-12-20T04:05:49;30.10;;;15.97;;
67571;SDS011;54397;47.506;19.158;2022-12-20T04:09:10;35.43;;;17.37;;
67571;SDS011;54397;47.506;19.158;2022-12-20T04:12:34;33.63;;;17.63;;
67571;SDS011;54397;47.506;19.158;2022-12-20T04:15:58;33.07;;;17.03;;
67571;SDS011;54397;47.506;19.158;2022-12-20T04:19:21;37.50;;;17.90;;
67571;SDS011;54397;47.506;19.158;2022-12-20T04:22:46;32.90;;;17.13;;
67571;SDS011;54397;47.506;19.158;2022-12-20T04:26:08;34.13;;;16.83;;
67571;SDS011;54397;47.506;19.158;2022-12-20T04:29:30;40.37;;;18.47;;
67571;SDS011;54397;47.506;19.158;2022-12-20T04:32:52;40.27;;;19.20;;
67571;SDS011;54397;47.506;19.158;2022-12-20T04:36:14;35.33;;;17.73;;
67571;SDS011;54397;47.506;19.158;2022-12-20T04:39:36;36.33;;;18.17;;
67571;SDS011;54397;47.506;19.158;2022-12-20T04:42:58;38.37;;;20.13;;
67571;SDS011;54397;47.506;19.158;2022-12-20T04:46:20;33.97;;;16.97;;
67571;SDS011;54397;47.506;19.158;2022-12-20T04:49:42;29.93;;;17.17;;
67571;SDS011;54397;47.506;19.158;2022-12-20T04:53:04;31.13;;;16.93;;
67571;SDS011;54397;47.506;19.158;2022-12-20T04:56:44;32.33;;;16.37;;
67571;SDS011;54397;47.506;19.158;2022-12-20T05:00:06;32.87;;;17.37;;
67571;SDS011;54397;47.506;19.158;2022-12-20T05:03:28;32.03;;;16.83;;
67571;SDS011;54397;47.506;19.158;2022-12-20T05:06:49;31.20;;;16.93;;
67571;SDS011;54397;47.506;19.158;2022-12-20T05:10:11;29.23;;;16.17;;
67571;SDS011;54397;47.506;19.158;2022-12-20T05:13:33;36.60;;;16.87;;
67571;SDS011;54397;47.506;19.158;2022-12-20T05:16:55;33.63;;;17.53;;
67571;SDS011;54397;47.506;19.158;2022-12-20T05:20:16;33.50;;;16.20;;
67571;SDS011;54397;47.506;19.158;2022-12-20T05:23:38;27.47;;;15.40;;
67571;SDS011;54397;47.506;19.158;2022-12-20T05:27:18;29.17;;;16.23;;
67571;SDS011;54397;47.506;19.158;2022-12-20T05:30:40;31.83;;;16.43;;
67571;SDS011;54397;47.506;19.158;2022-12-20T05:34:04;30.63;;;16.13;;
67571;SDS011;54397;47.506;19.158;2022-12-20T05:37:25;31.97;;;15.97;;
67571;SDS011;54397;47.506;19.158;2022-12-20T05:40:47;29.00;;;15.70;;
67571;SDS011;54397;47.506;19.158;2022-12-20T05:44:09;31.87;;;17.77;;
67571;SDS011;54397;47.506;19.158;2022-12-20T05:47:33;35.57;;;18.33;;
67571;SDS011;54397;47.506;19.158;2022-12-20T05:50:59;33.57;;;18.30;;
67571;SDS011;54397;47.506;19.158;2022-12-20T05:54:21;35.57;;;17.77;;
67571;SDS011;54397;47.506;19.158;2022-12-20T05:57:42;32.90;;;16.27;;
67571;SDS011;54397;47.506;19.158;2022-12-20T06:01:05;35.87;;;18.17;;
67571;SDS011;54397;47.506;19.158;2022-12-20T06:04:29;34.97;;;18.30;;
67571;SDS011;54397;47.506;19.158;2022-12-20T06:07:51;40.70;;;18.03;;
67571;SDS011;54397;47.506;19.158;2022-12-20T06:11:13;29.83;;;15.67;;
67571;SDS011;54397;47.506;19.158;2022-12-20T06:14:34;35.67;;;17.63;;
67571;SDS011;54397;47.506;19.158;2022-12-20T06:17:56;35.67;;;17.03;;
67571;SDS011;54397;47.506;19.158;2022-12-20T06:21:20;31.07;;;17.20;;
67571;SDS011;54397;47.506;19.158;2022-12-20T06:24:41;31.33;;;17.53;;
67571;SDS011;54397;47.506;19.158;2022-12-20T06:28:11;36.03;;;17.70;;
67571;SDS011;54397;47.506;19.158;2022-12-20T06:31:33;43.80;;;20.33;;
67571;SDS011;54397;47.506;19.158;2022-12-20T06:34:58;46.40;;;22.17;;
67571;SDS011;54397;47.506;19.158;2022-12-20T06:38:19;38.53;;;20.67;;
67571;SDS011;54397;47.506;19.158;2022-12-20T06:41:43;38.40;;;19.77;;
67571;SDS011;54397;47.506;19.158;2022-12-20T06:45:05;41.67;;;19.93;;
67571;SDS011;54397;47.506;19.158;2022-12-20T06:48:27;40.70;;;20.30;;
67571;SDS011;54397;47.506;19.158;2022-12-20T06:51:50;35.07;;;17.50;;
67571;SDS011;54397;47.506;19.158;2022-12-20T06:55:11;35.50;;;18.17;;
67571;SDS011;54397;47.506;19.158;2022-12-20T06:58:33;37.63;;;17.33;;
67571;SDS011;54397;47.506;19.158;2022-12-20T07:01:55;37.93;;;19.73;;
67571;SDS011;54397;47.506;19.158;2022-12-20T07:05:17;36.23;;;18.47;;
67571;SDS011;54397;47.506;19.158;2022-12-20T07:08:40;27.90;;;15.90;;
67571;SDS011;54397;47.506;19.158;2022-12-20T07:12:08;34.73;;;18.43;;
67571;SDS011;54397;47.506;19.158;2022-12-20T07:15:30;34.37;;;17.47;;
67571;SDS011;54397;47.506;19.158;2022-12-20T07:18:52;36.07;;;18.57;;
67571;SDS011;54397;47.506;19.158;2022-12-20T07:22:15;35.70;;;18.37;;
67571;SDS011;54397;47.506;19.158;2022-12-20T07:25:37;29.63;;;16.33;;
67571;SDS011;54397;47.506;19.158;2022-12-20T07:28:58;35.07;;;18.60;;
67571;SDS011;54397;47.506;19.158;2022-12-20T07:32:23;31.83;;;16.47;;
67571;SDS011;54397;47.506;19.158;2022-12-20T07:35:46;33.63;;;16.90;;
67571;SDS011;54397;47.506;19.158;2022-12-20T07:39:14;32.92;;;17.00;;
67571;SDS011;54397;47.506;19.158;2022-12-20T07:42:39;32.00;;;16.63;;
67571;SDS011;54397;47.506;19.158;2022-12-20T07:49:36;28.73;;;13.60;;
67571;SDS011;54397;47.506;19.158;2022-12-20T07:53:00;25.70;;;14.47;;
67571;SDS011;54397;47.506;19.158;2022-12-20T07:56:26;27.13;;;14.90;;
67571;SDS011;54397;47.506;19.158;2022-12-20T08:00:00;32.40;;;16.27;;
67571;SDS011;54397;47.506;19.158;2022-12-20T08:03:25;30.77;;;16.50;;
67571;SDS011;54397;47.506;19.158;2022-12-20T08:06:52;28.02;;;15.70;;
67571;SDS011;54397;47.506;19.158;2022-12-20T08:10:16;27.80;;;16.07;;
67571;SDS011;54397;47.506;19.158;2022-12-20T08:13:42;29.43;;;15.83;;
67571;SDS011;54397;47.506;19.158;2022-12-20T08:17:07;28.37;;;15.07;;
67571;SDS011;54397;47.506;19.158;2022-12-20T08:20:29;29.50;;;15.10;;
67571;SDS011;54397;47.506;19.158;2022-12-20T08:23:50;29.17;;;14.70;;
67571;SDS011;54397;47.506;19.158;2022-12-20T08:27:12;28.07;;;15.50;;
67571;SDS011;54397;47.506;19.158;2022-12-20T08:30:35;26.67;;;14.67;;
67571;SDS011;54397;47.506;19.158;2022-12-20T08:33:57;29.40;;;15.43;;
67571;SDS011;54397;47.506;19.158;2022-12-20T08:37:19;28.40;;;15.43;;
67571;SDS011;54397;47.506;19.158;2022-12-20T08:40:41;30.17;;;16.07;;
67571;SDS011;54397;47.506;19.158;2022-12-20T08:44:03;28.17;;;15.47;;
67571;SDS011;54397;47.506;19.158;2022-12-20T08:47:28;27.57;;;15.73;;
67571;SDS011;54397;47.506;19.158;2022-12-20T08:50:57;24.80;;;15.07;;
67571;SDS011;54397;47.506;19.158;2022-12-20T08:54:21;24.23;;;14.73;;
67571;SDS011;54397;47.506;19.158;2022-12-20T08:57:42;26.80;;;15.57;;
67571;SDS011;54397;47.506;19.158;2022-12-20T09:01:06;24.50;;;14.70;;
67571;SDS011;54397;47.506;19.158;2022-12-20T09:04:29;25.43;;;14.90;;
67571;SDS011;54397;47.506;19.158;2022-12-20T09:07:50;31.07;;;15.70;;
67571;SDS011;54397;47.506;19.158;2022-12-20T09:11:19;24.33;;;14.23;;
67571;SDS011;54397;47.506;19.158;2022-12-20T09:14:42;25.17;;;13.47;;
67571;SDS011;54397;47.506;19.158;2022-12-20T09:18:04;29.23;;;14.33;;
67571;SDS011;54397;47.506;19.158;2022-12-20T09:21:26;24.30;;;14.53;;
67571;SDS011;54397;47.506;19.158;2022-12-20T09:24:48;24.73;;;14.67;;
67571;SDS011;54397;47.506;19.158;2022-12-20T09:28:09;22.83;;;15.27;;
67571;SDS011;54397;47.506;19.158;2022-12-20T09:31:31;23.00;;;13.57;;
67571;SDS011;54397;47.506;19.158;2022-12-20T09:34:53;24.53;;;13.87;;
67571;SDS011;54397;47.506;19.158;2022-12-20T09:38:15;24.90;;;13.23;;
67571;SDS011;54397;47.506;19.158;2022-12-20T09:41:39;21.47;;;14.07;;
67571;SDS011;54397;47.506;19.158;2022-12-20T09:45:06;26.33;;;13.97;;
67571;SDS011;54397;47.506;19.158;2022-12-20T09:48:34;24.63;;;13.80;;
67571;SDS011;54397;47.506;19.158;2022-12-20T09:55:55;26.70;;;14.37;;
67571;SDS011;54397;47.506;19.158;2022-12-20T09:59:26;22.90;;;13.27;;
67571;SDS011;54397;47.506;19.158;2022-12-20T10:02:48;24.27;;;14.30;;
67571;SDS011;54397;47.506;19.158;2022-12-20T10:16:54;19.83;;;11.93;;
67571;SDS011;54397;47.506;19.158;2022-12-20T10:20:26;23.17;;;13.00;;
67571;SDS011;54397;47.506;19.158;2022-12-20T10:27:22;18.88;;;11.90;;
67571;SDS011;54397;47.506;19.158;2022-12-20T10:30:46;19.02;;;12.45;;
67571;SDS011;54397;47.506;19.158;2022-12-20T10:34:07;21.98;;;11.82;;
67571;SDS011;54397;47.506;19.158;2022-12-20T10:37:32;26.38;;;13.40;;
67571;SDS011;54397;47.506;19.158;2022-12-20T10:44:37;18.58;;;12.45;;
67571;SDS011;54397;47.506;19.158;2022-12-20T10:48:00;17.88;;;11.55;;
67571;SDS011;54397;47.506;19.158;2022-12-20T10:51:26;20.00;;;10.57;;
67571;SDS011;54397;47.506;19.158;2022-12-20T10:54:47;19.42;;;12.52;;
67571;SDS011;54397;47.506;19.158;2022-12-20T11:01:32;21.92;;;13.13;;
67571;SDS011;54397;47.506;19.158;2022-12-20T11:04:59;22.08;;;12.70;;
67571;SDS011;54397;47.506;19.158;2022-12-20T11:08:24;21.40;;;12.25;;
67571;SDS011;54397;47.506;19.158;2022-12-20T11:12:11;19.60;;;12.23;;
67571;SDS011;54397;47.506;19.158;2022-12-20T11:15:35;21.80;;;13.00;;
67571;SDS011;54397;47.506;19.158;2022-12-20T11:30:28;21.53;;;13.43;;
67571;SDS011;54397;47.506;19.158;2022-12-20T11:40:57;21.77;;;12.80;;
67571;SDS011;54397;47.506;19.158;2022-12-20T11:55:55;19.90;;;12.40;;
67571;SDS011;54397;47.506;19.158;2022-12-20T11:59:33;23.03;;;12.77;;
67571;SDS011;54397;47.506;19.158;2022-12-20T12:03:02;21.33;;;13.20;;
67571;SDS011;54397;47.506;19.158;2022-12-20T12:06:33;20.73;;;13.07;;
67571;SDS011;54397;47.506;19.158;2022-12-20T12:10:08;19.90;;;12.63;;
67571;SDS011;54397;47.506;19.158;2022-12-20T12:13:38;20.30;;;12.67;;
67571;SDS011;54397;47.506;19.158;2022-12-20T12:17:04;19.55;;;13.48;;
67571;SDS011;54397;47.506;19.158;2022-12-20T12:27:47;19.20;;;12.85;;
67571;SDS011;54397;47.506;19.158;2022-12-20T12:31:12;20.10;;;12.87;;
67571;SDS011;54397;47.506;19.158;2022-12-20T12:46:28;20.03;;;11.87;;
67571;SDS011;54397;47.506;19.158;2022-12-20T12:49:55;20.17;;;12.33;;
67571;SDS011;54397;47.506;19.158;2022-12-20T12:53:24;27.50;;;16.10;;
67571;SDS011;54397;47.506;19.158;2022-12-20T12:56:53;22.37;;;12.63;;
67571;SDS011;54397;47.506;19.158;2022-12-20T13:04:19;24.57;;;13.23;;
67571;SDS011;54397;47.506;19.158;2022-12-20T13:07:42;23.43;;;12.80;;
67571;SDS011;54397;47.506;19.158;2022-12-20T13:11:10;21.60;;;12.20;;
67571;SDS011;54397;47.506;19.158;2022-12-20T13:17:57;23.23;;;11.73;;
67571;SDS011;54397;47.506;19.158;2022-12-20T13:21:27;21.13;;;12.07;;
67571;SDS011;54397;47.506;19.158;2022-12-20T13:31:47;22.27;;;12.50;;
67571;SDS011;54397;47.506;19.158;2022-12-20T13:38:49;19.43;;;11.77;;
67571;SDS011;54397;47.506;19.158;2022-12-20T13:42:18;21.67;;;12.40;;
67571;SDS011;54397;47.506;19.158;2022-12-20T13:49:33;21.57;;;12.63;;
67571;SDS011;54397;47.506;19.158;2022-12-20T13:52:58;24.03;;;13.87;;
67571;SDS011;54397;47.506;19.158;2022-12-20T13:57:04;27.63;;;14.57;;
67571;SDS011;54397;47.506;19.158;2022-12-20T14:00:05;25.90;;;14.43;;
67571;SDS011;54397;47.506;19.158;2022-12-20T14:03:39;25.10;;;14.57;;
67571;SDS011;54397;47.506;19.158;2022-12-20T14:07:03;42.83;;;23.10;;
67571;SDS011;54397;47.506;19.158;2022-12-20T14:10:26;23.90;;;14.70;;
67571;SDS011;54397;47.506;19.158;2022-12-20T14:13:59;21.40;;;13.47;;
67571;SDS011;54397;47.506;19.158;2022-12-20T14:17:29;25.57;;;14.40;;
67571;SDS011;54397;47.506;19.158;2022-12-20T14:20:57;24.53;;;13.67;;
67571;SDS011;54397;47.506;19.158;2022-12-20T14:27:45;24.27;;;13.93;;
67571;SDS011;54397;47.506;19.158;2022-12-20T14:31:33;20.87;;;13.63;;
67571;SDS011;54397;47.506;19.158;2022-12-20T14:35:00;25.93;;;15.03;;
67571;SDS011;54397;47.506;19.158;2022-12-20T14:38:32;29.13;;;15.67;;
67571;SDS011;54397;47.506;19.158;2022-12-20T14:41:55;28.30;;;16.63;;
67571;SDS011;54397;47.506;19.158;2022-12-20T14:45:30;28.57;;;16.40;;
67571;SDS011;54397;47.506;19.158;2022-12-20T14:49:04;28.53;;;16.63;;
67571;SDS011;54397;47.506;19.158;2022-12-20T14:52:37;32.63;;;17.53;;
67571;SDS011;54397;47.506;19.158;2022-12-20T14:56:01;32.10;;;17.17;;
67571;SDS011;54397;47.506;19.158;2022-12-20T14:59:26;30.53;;;17.13;;
67571;SDS011;54397;47.506;19.158;2022-12-20T15:10:08;32.93;;;17.00;;
67571;SDS011;54397;47.506;19.158;2022-12-20T15:13:37;31.20;;;18.60;;
67571;SDS011;54397;47.506;19.158;2022-12-20T15:17:04;33.30;;;17.97;;
67571;SDS011;54397;47.506;19.158;2022-12-20T15:20:30;31.83;;;17.20;;
67571;SDS011;54397;47.506;19.158;2022-12-20T15:23:52;31.33;;;18.23;;
67571;SDS011;54397;47.506;19.158;2022-12-20T15:27:18;32.70;;;19.30;;
67571;SDS011;54397;47.506;19.158;2022-12-20T15:30:44;33.40;;;19.60;;
67571;SDS011;54397;47.506;19.158;2022-12-20T15:34:12;35.90;;;20.07;;
67571;SDS011;54397;47.506;19.158;2022-12-20T15:37:34;37.23;;;20.77;;
67571;SDS011;54397;47.506;19.158;2022-12-20T15:41:01;32.40;;;18.33;;
67571;SDS011;54397;47.506;19.158;2022-12-20T15:44:27;38.53;;;21.30;;
67571;SDS011;54397;47.506;19.158;2022-12-20T15:47:51;40.70;;;20.43;;
67571;SDS011;54397;47.506;19.158;2022-12-20T15:54:47;35.63;;;18.03;;
67571;SDS011;54397;47.506;19.158;2022-12-20T15:58:11;32.27;;;18.37;;
67571;SDS011;54397;47.506;19.158;2022-12-20T16:01:34;35.17;;;18.23;;
67571;SDS011;54397;47.506;19.158;2022-12-20T16:05:01;34.85;;;18.85;;
67571;SDS011;54397;47.506;19.158;2022-12-20T16:08:23;33.70;;;18.73;;
67571;SDS011;54397;47.506;19.158;2022-12-20T16:11:45;31.20;;;17.90;;
67571;SDS011;54397;47.506;19.158;2022-12-20T16:15:27;37.17;;;18.73;;
67571;SDS011;54397;47.506;19.158;2022-12-20T16:18:49;31.63;;;18.33;;
67571;SDS011;54397;47.506;19.158;2022-12-20T16:22:13;32.53;;;19.33;;
67571;SDS011;54397;47.506;19.158;2022-12-20T16:25:45;34.63;;;19.87;;
67571;SDS011;54397;47.506;19.158;2022-12-20T16:29:06;36.00;;;20.00;;
67571;SDS011;54397;47.506;19.158;2022-12-20T16:32:28;39.70;;;19.97;;
67571;SDS011;54397;47.506;19.158;2022-12-20T16:35:50;37.93;;;19.80;;
67571;SDS011;54397;47.506;19.158;2022-12-20T16:39:11;36.50;;;19.53;;
67571;SDS011;54397;47.506;19.158;2022-12-20T16:42:33;37.83;;;20.80;;
67571;SDS011;54397;47.506;19.158;2022-12-20T16:45:58;38.27;;;20.50;;
67571;SDS011;54397;47.506;19.158;2022-12-20T16:49:22;37.70;;;20.33;;
67571;SDS011;54397;47.506;19.158;2022-12-20T16:52:45;40.23;;;22.90;;
67571;SDS011;54397;47.506;19.158;2022-12-20T16:56:10;40.63;;;22.30;;
67571;SDS011;54397;47.506;19.158;2022-12-20T16:59:34;38.87;;;21.47;;
67571;SDS011;54397;47.506;19.158;2022-12-20T17:02:55;36.77;;;22.10;;
67571;SDS011;54397;47.506;19.158;2022-12-20T17:06:19;42.20;;;22.27;;
67571;SDS011;54397;47.506;19.158;2022-12-20T17:09:41;47.37;;;23.53;;
67571;SDS011;54397;47.506;19.158;2022-12-20T17:13:03;47.67;;;24.53;;
67571;SDS011;54397;47.506;19.158;2022-12-20T17:16:30;41.77;;;24.00;;
67571;SDS011;54397;47.506;19.158;2022-12-20T17:19:52;39.90;;;23.90;;
67571;SDS011;54397;47.506;19.158;2022-12-20T17:23:14;45.10;;;24.13;;
67571;SDS011;54397;47.506;19.158;2022-12-20T17:26:36;48.20;;;25.17;;
67571;SDS011;54397;47.506;19.158;2022-12-20T17:29:57;43.90;;;24.40;;
67571;SDS011;54397;47.506;19.158;2022-12-20T17:33:19;45.57;;;24.90;;
67571;SDS011;54397;47.506;19.158;2022-12-20T17:36:43;44.70;;;24.07;;
67571;SDS011;54397;47.506;19.158;2022-12-20T17:40:05;42.30;;;25.63;;
67571;SDS011;54397;47.506;19.158;2022-12-20T17:43:27;47.07;;;26.17;;
67571;SDS011;54397;47.506;19.158;2022-12-20T17:46:49;45.33;;;25.73;;
67571;SDS011;54397;47.506;19.158;2022-12-20T17:50:17;43.80;;;25.80;;
67571;SDS011;54397;47.506;19.158;2022-12-20T17:53:38;47.47;;;25.67;;
67571;SDS011;54397;47.506;19.158;2022-12-20T17:57:03;45.17;;;25.43;;
67571;SDS011;54397;47.506;19.158;2022-12-20T18:04:00;41.83;;;23.83;;
67571;SDS011;54397;47.506;19.158;2022-12-20T18:07:26;43.60;;;23.60;;
67571;SDS011;54397;47.506;19.158;2022-12-20T18:10:48;42.90;;;24.97;;
67571;SDS011;54397;47.506;19.158;2022-12-20T18:14:12;43.97;;;24.17;;
67571;SDS011;54397;47.506;19.158;2022-12-20T18:17:37;45.87;;;23.90;;
67571;SDS011;54397;47.506;19.158;2022-12-20T18:21:11;40.63;;;24.43;;
67571;SDS011;54397;47.506;19.158;2022-12-20T18:24:35;42.10;;;23.57;;
67571;SDS011;54397;47.506;19.158;2022-12-20T18:27:57;41.90;;;23.97;;
67571;SDS011;54397;47.506;19.158;2022-12-20T18:31:22;43.17;;;24.70;;
67571;SDS011;54397;47.506;19.158;2022-12-20T18:34:45;43.77;;;24.90;;
67571;SDS011;54397;47.506;19.158;2022-12-20T18:38:08;42.17;;;23.90;;
67571;SDS011;54397;47.506;19.158;2022-12-20T18:41:30;45.77;;;25.73;;
67571;SDS011;54397;47.506;19.158;2022-12-20T18:44:52;44.53;;;25.67;;
67571;SDS011;54397;47.506;19.158;2022-12-20T18:48:14;39.33;;;23.27;;
67571;SDS011;54397;47.506;19.158;2022-12-20T18:51:35;47.67;;;25.20;;
67571;SDS011;54397;47.506;19.158;2022-12-20T18:54:59;39.80;;;23.67;;
67571;SDS011;54397;47.506;19.158;2022-12-20T18:58:21;40.63;;;23.27;;
67571;SDS011;54397;47.506;19.158;2022-12-20T19:01:45;42.50;;;23.90;;
67571;SDS011;54397;47.506;19.158;2022-12-20T19:05:12;40.93;;;23.53;;
67571;SDS011;54397;47.506;19.158;2022-12-20T19:08:33;36.93;;;22.57;;
67571;SDS011;54397;47.506;19.158;2022-12-20T19:11:58;40.77;;;23.23;;
67571;SDS011;54397;47.506;19.158;2022-12-20T19:15:19;39.10;;;23.07;;
67571;SDS011;54397;47.506;19.158;2022-12-20T19:18:41;40.00;;;23.20;;
67571;SDS011;54397;47.506;19.158;2022-12-20T19:22:03;44.13;;;23.43;;
67571;SDS011;54397;47.506;19.158;2022-12-20T19:25:25;46.03;;;22.83;;
67571;SDS011;54397;47.506;19.158;2022-12-20T19:28:47;40.97;;;23.40;;
67571;SDS011;54397;47.506;19.158;2022-12-20T19:32:09;38.67;;;22.67;;
67571;SDS011;54397;47.506;19.158;2022-12-20T19:35:35;40.57;;;22.23;;
67571;SDS011;54397;47.506;19.158;2022-12-20T19:39:17;34.30;;;20.67;;
67571;SDS011;54397;47.506;19.158;2022-12-20T19:42:40;37.20;;;21.83;;
67571;SDS011;54397;47.506;19.158;2022-12-20T19:46:03;37.43;;;22.17;;
67571;SDS011;54397;47.506;19.158;2022-12-20T19:49:27;34.33;;;21.43;;
67571;SDS011;54397;47.506;19.158;2022-12-20T19:52:50;38.50;;;23.50;;
67571;SDS011;54397;47.506;19.158;2022-12-20T19:56:15;38.13;;;21.97;;
67571;SDS011;54397;47.506;19.158;2022-12-20T19:59:39;40.50;;;22.60;;
67571;SDS011;54397;47.506;19.158;2022-12-20T20:03:00;35.93;;;22.47;;
67571;SDS011;54397;47.506;19.158;2022-12-20T20:06:26;38.00;;;22.77;;
67571;SDS011;54397;47.506;19.158;2022-12-20T20:09:48;38.53;;;22.27;;
67571;SDS011;54397;47.506;19.158;2022-12-20T20:13:10;38.67;;;22.73;;
67571;SDS011;54397;47.506;19.158;2022-12-20T20:16:34;39.97;;;22.43;;
67571;SDS011;54397;47.506;19.158;2022-12-20T20:19:56;40.20;;;22.57;;
67571;SDS011;54397;47.506;19.158;2022-12-20T20:23:18;39.63;;;23.83;;
67571;SDS011;54397;47.506;19.158;2022-12-20T20:26:40;35.77;;;21.60;;
67571;SDS011;54397;47.506;19.158;2022-12-20T20:30:02;38.77;;;22.13;;
67571;SDS011;54397;47.506;19.158;2022-12-20T20:33:25;40.50;;;22.90;;
67571;SDS011;54397;47.506;19.158;2022-12-20T20:36:47;40.37;;;23.60;;
67571;SDS011;54397;47.506;19.158;2022-12-20T20:40:08;41.90;;;22.93;;
67571;SDS011;54397;47.506;19.158;2022-12-20T20:43:34;42.67;;;24.27;;
67571;SDS011;54397;47.506;19.158;2022-12-20T20:46:59;44.23;;;23.37;;
67571;SDS011;54397;47.506;19.158;2022-12-20T20:50:24;42.77;;;23.30;;
67571;SDS011;54397;47.506;19.158;2022-12-20T20:53:45;37.80;;;22.10;;
67571;SDS011;54397;47.506;19.158;2022-12-20T20:57:07;36.73;;;22.03;;
67571;SDS011;54397;47.506;19.158;2022-12-20T21:00:29;41.20;;;22.03;;
67571;SDS011;54397;47.506;19.158;2022-12-20T21:03:55;39.53;;;22.40;;
67571;SDS011;54397;47.506;19.158;2022-12-20T21:07:17;40.97;;;21.60;;
67571;SDS011;54397;47.506;19.158;2022-12-20T21:10:39;59.70;;;34.67;;
67571;SDS011;54397;47.506;19.158;2022-12-20T21:14:01;47.20;;;25.97;;
67571;SDS011;54397;47.506;19.158;2022-12-20T21:17:23;36.03;;;20.60;;
67571;SDS011;54397;47.506;19.158;2022-12-20T21:20:46;39.70;;;21.07;;
67571;SDS011;54397;47.506;19.158;2022-12-20T21:24:11;34.87;;;22.03;;
67571;SDS011;54397;47.506;19.158;2022-12-20T21:27:32;33.83;;;20.47;;
67571;SDS011;54397;47.506;19.158;2022-12-20T21:31:01;36.37;;;20.80;;
67571;SDS011;54397;47.506;19.158;2022-12-20T21:34:24;36.30;;;21.30;;
67571;SDS011;54397;47.506;19.158;2022-12-20T21:37:48;40.87;;;22.23;;
67571;SDS011;54397;47.506;19.158;2022-12-20T21:41:10;35.87;;;20.67;;
67571;SDS011;54397;47.506;19.158;2022-12-20T21:44:37;37.73;;;21.57;;
67571;SDS011;54397;47.506;19.158;2022-12-20T21:48:01;34.03;;;20.70;;